sensor_id;sensor_type;location;lat;lon;timestamp;temperature;humidity
3086;DHT22;52812;48.960;9.108;2023-02-28T00:00:05;-1.30;99.90
3086;DHT22;52812;48.960;9.108;2023-02-28T00:02:36;-1.30;99.90
3086;DHT22;52812;48.960;9.108;2023-02-28T00:05:02;-1.30;99.90
3086;DHT22;52812;48.960;9.108;2023-02-28T00:07:29;-1.30;99.90
3086;DHT22;52812;48.960;9.108;2023-02-28T00:09:54;-1.30;99.90
3086;DHT22;52812;48.960;9.108;2023-02-28T00:12:20;-1.30;99.90
3086;DHT22;52812;48.960;9.108;2023-02-28T00:14:45;-1.30;99.90
3086;DHT22;52812;48.960;9.108;2023-02-28T00:17:11;-1.40;99.90
3086;DHT22;52812;48.960;9.108;2023-02-28T00:19:36;-1.40;99.90
3086;DHT22;52812;48.960;9.108;2023-02-28T00:22:02;-1.40;99.90
3086;DHT22;52812;48.960;9.108;2023-02-28T00:24:28;-1.40;99.90
3086;DHT22;52812;48.960;9.108;2023-02-28T00:26:53;-1.40;99.90
3086;DHT22;52812;48.960;9.108;2023-02-28T00:29:19;-1.40;99.90
3086;DHT22;52812;48.960;9.108;2023-02-28T00:31:44;-1.50;99.90
3086;DHT22;52812;48.960;9.108;2023-02-28T00:34:10;-1.50;99.90
3086;DHT22;52812;48.960;9.108;2023-02-28T00:36:35;-1.60;99.90
3086;DHT22;52812;48.960;9.108;2023-02-28T00:39:01;-1.60;99.90
3086;DHT22;52812;48.960;9.108;2023-02-28T00:41:26;-1.60;99.90
3086;DHT22;52812;48.960;9.108;2023-02-28T00:43:52;-1.50;99.90
3086;DHT22;52812;48.960;9.108;2023-02-28T00:46:17;-1.50;99.90
3086;DHT22;52812;48.960;9.108;2023-02-28T00:48:43;-1.50;99.90
3086;DHT22;52812;48.960;9.108;2023-02-28T00:51:09;-1.50;99.90
3086;DHT22;52812;48.960;9.108;2023-02-28T00:53:34;-1.50;99.90
3086;DHT22;52812;48.960;9.108;2023-02-28T00:56:00;-1.50;99.90
3086;DHT22;52812;48.960;9.108;2023-02-28T00:58:26;-1.40;99.90
3086;DHT22;52812;48.960;9.108;2023-02-28T01:00:52;-1.50;99.90
3086;DHT22;52812;48.960;9.108;2023-02-28T01:03:20;-1.50;99.90
3086;DHT22;52812;48.960;9.108;2023-02-28T01:05:46;-1.50;99.90
3086;DHT22;52812;48.960;9.108;2023-02-28T01:08:12;-1.50;99.90
3086;DHT22;52812;48.960;9.108;2023-02-28T01:10:39;-1.50;99.90
3086;DHT22;52812;48.960;9.108;2023-02-28T01:13:04;-1.60;99.90
3086;DHT22;52812;48.960;9.108;2023-02-28T01:15:30;-1.60;99.90
3086;DHT22;52812;48.960;9.108;2023-02-28T01:17:57;-1.60;99.90
3086;DHT22;52812;48.960;9.108;2023-02-28T01:20:23;-1.60;99.90
3086;DHT22;52812;48.960;9.108;2023-02-28T01:22:49;-1.60;99.90
3086;DHT22;52812;48.960;9.108;2023-02-28T01:25:14;-1.60;99.90
3086;DHT22;52812;48.960;9.108;2023-02-28T01:27:40;-1.70;99.90
3086;DHT22;52812;48.960;9.108;2023-02-28T01:30:07;-1.70;99.90
3086;DHT22;52812;48.960;9.108;2023-02-28T01:32:35;-1.70;99.90
3086;DHT22;52812;48.960;9.108;2023-02-28T01:35:00;-1.70;99.90
3086;DHT22;52812;48.960;9.108;2023-02-28T01:37:26;-1.70;99.90
3086;DHT22;52812;48.960;9.108;2023-02-28T01:39:52;-1.70;99.90
3086;DHT22;52812;48.960;9.108;2023-02-28T01:42:17;-1.70;99.90
3086;DHT22;52812;48.960;9.108;2023-02-28T01:45:03;-1.80;99.90
3086;DHT22;52812;48.960;9.108;2023-02-28T01:47:33;-1.80;99.90
3086;DHT22;52812;48.960;9.108;2023-02-28T01:50:01;-1.90;99.90
3086;DHT22;52812;48.960;9.108;2023-02-28T01:52:27;-1.90;99.90
3086;DHT22;52812;48.960;9.108;2023-02-28T01:54:55;-1.90;99.90
3086;DHT22;52812;48.960;9.108;2023-02-28T01:57:25;-1.90;99.90
3086;DHT22;52812;48.960;9.108;2023-02-28T02:00:01;-1.90;99.90
3086;DHT22;52812;48.960;9.108;2023-02-28T02:02:30;-1.80;99.90
3086;DHT22;52812;48.960;9.108;2023-02-28T02:05:08;-1.90;99.90
3086;DHT22;52812;48.960;9.108;2023-02-28T02:07:37;-1.90;99.90
3086;DHT22;52812;48.960;9.108;2023-02-28T02:16:06;-1.90;99.90
3086;DHT22;52812;48.960;9.108;2023-02-28T02:18:52;-1.90;99.90
3086;DHT22;52812;48.960;9.108;2023-02-28T02:37:27;-1.90;99.90
3086;DHT22;52812;48.960;9.108;2023-02-28T02:40:18;-1.90;99.90
3086;DHT22;52812;48.960;9.108;2023-02-28T02:43:06;-1.90;99.90
3086;DHT22;52812;48.960;9.108;2023-02-28T02:45:43;-1.90;99.90
3086;DHT22;52812;48.960;9.108;2023-02-28T02:48:13;-1.80;99.90
3086;DHT22;52812;48.960;9.108;2023-02-28T02:51:06;-1.80;99.90
3086;DHT22;52812;48.960;9.108;2023-02-28T02:53:34;-1.80;99.90
3086;DHT22;52812;48.960;9.108;2023-02-28T02:56:01;-1.80;99.90
3086;DHT22;52812;48.960;9.108;2023-02-28T02:58:32;-1.80;99.90
3086;DHT22;52812;48.960;9.108;2023-02-28T03:01:01;-1.80;99.90
3086;DHT22;52812;48.960;9.108;2023-02-28T03:03:29;-1.80;99.90
3086;DHT22;52812;48.960;9.108;2023-02-28T03:05:58;-1.80;99.90
3086;DHT22;52812;48.960;9.108;2023-02-28T03:08:24;-1.80;99.90
3086;DHT22;52812;48.960;9.108;2023-02-28T03:10:55;-1.80;99.90
3086;DHT22;52812;48.960;9.108;2023-02-28T03:13:42;-1.80;99.90
3086;DHT22;52812;48.960;9.108;2023-02-28T03:21:46;-1.80;99.90
3086;DHT22;52812;48.960;9.108;2023-02-28T03:26:58;-1.70;99.90
3086;DHT22;52812;48.960;9.108;2023-02-28T03:29:43;-1.60;99.90
3086;DHT22;52812;48.960;9.108;2023-02-28T03:32:28;-1.70;99.90
3086;DHT22;52812;48.960;9.108;2023-02-28T03:35:14;-1.60;99.90
3086;DHT22;52812;48.960;9.108;2023-02-28T03:37:50;-1.60;99.90
3086;DHT22;52812;48.960;9.108;2023-02-28T03:40:20;-1.50;99.90
3086;DHT22;52812;48.960;9.108;2023-02-28T03:42:50;-1.50;99.90
3086;DHT22;52812;48.960;9.108;2023-02-28T03:45:29;-1.50;99.90
3086;DHT22;52812;48.960;9.108;2023-02-28T03:48:11;-1.50;99.90
3086;DHT22;52812;48.960;9.108;2023-02-28T03:50:44;-1.50;99.90
3086;DHT22;52812;48.960;9.108;2023-02-28T03:53:29;-1.50;99.90
3086;DHT22;52812;48.960;9.108;2023-02-28T03:56:01;-1.50;99.90
3086;DHT22;52812;48.960;9.108;2023-02-28T03:58:41;-1.50;99.90
3086;DHT22;52812;48.960;9.108;2023-02-28T04:01:15;-1.60;99.90
3086;DHT22;52812;48.960;9.108;2023-02-28T04:03:42;-1.60;99.90
3086;DHT22;52812;48.960;9.108;2023-02-28T04:06:15;-1.60;99.90
3086;DHT22;52812;48.960;9.108;2023-02-28T04:08:41;-1.60;99.90
3086;DHT22;52812;48.960;9.108;2023-02-28T04:13:40;-1.60;99.90
3086;DHT22;52812;48.960;9.108;2023-02-28T04:16:09;-1.50;99.90
3086;DHT22;52812;48.960;9.108;2023-02-28T04:18:38;-1.50;99.90
3086;DHT22;52812;48.960;9.108;2023-02-28T04:21:05;-1.50;99.90
3086;DHT22;52812;48.960;9.108;2023-02-28T04:23:31;-1.50;99.90
3086;DHT22;52812;48.960;9.108;2023-02-28T04:25:57;-1.50;99.90
3086;DHT22;52812;48.960;9.108;2023-02-28T04:28:23;-1.50;99.90
3086;DHT22;52812;48.960;9.108;2023-02-28T04:30:55;-1.50;99.90
3086;DHT22;52812;48.960;9.108;2023-02-28T04:33:20;-1.50;99.90
3086;DHT22;52812;48.960;9.108;2023-02-28T04:35:46;-1.40;99.90
3086;DHT22;52812;48.960;9.108;2023-02-28T04:38:12;-1.40;99.90
3086;DHT22;52812;48.960;9.108;2023-02-28T04:40:37;-1.40;99.90
3086;DHT22;52812;48.960;9.108;2023-02-28T04:43:03;-1.40;99.90
3086;DHT22;52812;48.960;9.108;2023-02-28T04:45:28;-1.30;99.90
3086;DHT22;52812;48.960;9.108;2023-02-28T04:47:57;-1.40;99.90
3086;DHT22;52812;48.960;9.108;2023-02-28T04:50:23;-1.30;99.90
3086;DHT22;52812;48.960;9.108;2023-02-28T04:52:48;-1.30;99.90
3086;DHT22;52812;48.960;9.108;2023-02-28T04:55:14;-1.30;99.90
3086;DHT22;52812;48.960;9.108;2023-02-28T04:57:40;-1.30;99.90
3086;DHT22;52812;48.960;9.108;2023-02-28T05:00:08;-1.30;99.90
3086;DHT22;52812;48.960;9.108;2023-02-28T05:02:37;-1.30;99.90
3086;DHT22;52812;48.960;9.108;2023-02-28T05:05:04;-1.30;99.90
3086;DHT22;52812;48.960;9.108;2023-02-28T05:07:30;-1.20;99.90
3086;DHT22;52812;48.960;9.108;2023-02-28T05:09:55;-1.20;99.90
3086;DHT22;52812;48.960;9.108;2023-02-28T05:12:21;-1.20;99.90
3086;DHT22;52812;48.960;9.108;2023-02-28T05:14:46;-1.20;99.90
3086;DHT22;52812;48.960;9.108;2023-02-28T05:17:12;-1.20;99.90
3086;DHT22;52812;48.960;9.108;2023-02-28T05:19:37;-1.20;99.90
3086;DHT22;52812;48.960;9.108;2023-02-28T05:22:03;-1.20;99.90
3086;DHT22;52812;48.960;9.108;2023-02-28T05:24:29;-1.10;99.90
3086;DHT22;52812;48.960;9.108;2023-02-28T05:26:54;-1.10;99.90
3086;DHT22;52812;48.960;9.108;2023-02-28T05:29:21;-1.10;99.90
3086;DHT22;52812;48.960;9.108;2023-02-28T05:31:47;-1.10;99.90
3086;DHT22;52812;48.960;9.108;2023-02-28T05:34:12;-1.10;99.90
3086;DHT22;52812;48.960;9.108;2023-02-28T05:36:40;-1.10;99.90
3086;DHT22;52812;48.960;9.108;2023-02-28T05:39:06;-1.00;99.90
3086;DHT22;52812;48.960;9.108;2023-02-28T05:41:38;-1.00;99.90
3086;DHT22;52812;48.960;9.108;2023-02-28T05:44:04;-0.90;99.90
3086;DHT22;52812;48.960;9.108;2023-02-28T05:46:29;-0.90;99.90
3086;DHT22;52812;48.960;9.108;2023-02-28T05:48:55;-0.90;99.90
3086;DHT22;52812;48.960;9.108;2023-02-28T05:51:23;-0.90;99.90
3086;DHT22;52812;48.960;9.108;2023-02-28T05:53:48;-0.90;99.90
3086;DHT22;52812;48.960;9.108;2023-02-28T05:56:14;-0.90;99.90
3086;DHT22;52812;48.960;9.108;2023-02-28T05:58:40;-0.80;99.90
3086;DHT22;52812;48.960;9.108;2023-02-28T06:01:35;-0.90;99.90
3086;DHT22;52812;48.960;9.108;2023-02-28T06:04:02;-0.80;99.90
3086;DHT22;52812;48.960;9.108;2023-02-28T06:06:28;-0.80;99.90
3086;DHT22;52812;48.960;9.108;2023-02-28T06:08:55;-0.80;99.90
3086;DHT22;52812;48.960;9.108;2023-02-28T06:11:21;-0.80;99.90
3086;DHT22;52812;48.960;9.108;2023-02-28T06:13:46;-0.80;99.90
3086;DHT22;52812;48.960;9.108;2023-02-28T06:16:12;-0.80;99.90
3086;DHT22;52812;48.960;9.108;2023-02-28T06:18:38;-0.80;99.90
3086;DHT22;52812;48.960;9.108;2023-02-28T06:21:04;-0.80;99.90
3086;DHT22;52812;48.960;9.108;2023-02-28T06:23:30;-0.80;99.90
3086;DHT22;52812;48.960;9.108;2023-02-28T06:25:55;-0.80;99.90
3086;DHT22;52812;48.960;9.108;2023-02-28T06:28:24;-0.80;99.90
3086;DHT22;52812;48.960;9.108;2023-02-28T06:30:50;-0.80;99.90
3086;DHT22;52812;48.960;9.108;2023-02-28T06:33:16;-0.80;99.90
3086;DHT22;52812;48.960;9.108;2023-02-28T06:35:44;-0.80;99.90
3086;DHT22;52812;48.960;9.108;2023-02-28T06:38:11;-0.80;99.90
3086;DHT22;52812;48.960;9.108;2023-02-28T06:40:37;-0.80;99.90
3086;DHT22;52812;48.960;9.108;2023-02-28T06:43:03;-0.80;99.90
3086;DHT22;52812;48.960;9.108;2023-02-28T06:45:29;-0.80;99.90
3086;DHT22;52812;48.960;9.108;2023-02-28T06:47:55;-0.80;99.90
3086;DHT22;52812;48.960;9.108;2023-02-28T06:50:20;-0.80;99.90
3086;DHT22;52812;48.960;9.108;2023-02-28T06:52:46;-0.70;99.90
3086;DHT22;52812;48.960;9.108;2023-02-28T06:55:12;-0.70;99.90
3086;DHT22;52812;48.960;9.108;2023-02-28T06:57:38;-0.70;99.90
3086;DHT22;52812;48.960;9.108;2023-02-28T07:00:06;-0.70;99.90
3086;DHT22;52812;48.960;9.108;2023-02-28T07:02:33;-0.70;99.90
3086;DHT22;52812;48.960;9.108;2023-02-28T07:04:58;-0.70;99.90
3086;DHT22;52812;48.960;9.108;2023-02-28T07:07:24;-0.60;99.90
3086;DHT22;52812;48.960;9.108;2023-02-28T07:09:49;-0.60;99.90
3086;DHT22;52812;48.960;9.108;2023-02-28T07:12:15;-0.60;99.90
3086;DHT22;52812;48.960;9.108;2023-02-28T07:14:41;-0.60;99.90
3086;DHT22;52812;48.960;9.108;2023-02-28T07:17:10;-0.60;99.90
3086;DHT22;52812;48.960;9.108;2023-02-28T07:19:40;-0.60;99.90
3086;DHT22;52812;48.960;9.108;2023-02-28T07:22:06;-0.60;99.90
3086;DHT22;52812;48.960;9.108;2023-02-28T07:24:32;-0.60;99.90
3086;DHT22;52812;48.960;9.108;2023-02-28T07:26:58;-0.60;99.90
3086;DHT22;52812;48.960;9.108;2023-02-28T07:29:25;-0.60;99.90
3086;DHT22;52812;48.960;9.108;2023-02-28T07:31:50;-0.60;99.90
3086;DHT22;52812;48.960;9.108;2023-02-28T07:34:18;-0.60;99.90
3086;DHT22;52812;48.960;9.108;2023-02-28T07:36:44;-0.60;99.90
3086;DHT22;52812;48.960;9.108;2023-02-28T07:39:10;-0.60;99.90
3086;DHT22;52812;48.960;9.108;2023-02-28T07:41:35;-0.50;99.90
3086;DHT22;52812;48.960;9.108;2023-02-28T07:44:04;-0.40;99.90
3086;DHT22;52812;48.960;9.108;2023-02-28T07:46:30;-0.40;99.90
3086;DHT22;52812;48.960;9.108;2023-02-28T07:49:00;-0.40;99.90
3086;DHT22;52812;48.960;9.108;2023-02-28T07:51:28;-0.30;99.90
3086;DHT22;52812;48.960;9.108;2023-02-28T07:53:54;-0.30;99.90
3086;DHT22;52812;48.960;9.108;2023-02-28T07:56:20;-0.30;99.90
3086;DHT22;52812;48.960;9.108;2023-02-28T07:58:45;-0.30;99.90
3086;DHT22;52812;48.960;9.108;2023-02-28T08:01:11;-0.30;99.90
3086;DHT22;52812;48.960;9.108;2023-02-28T08:03:38;-0.20;99.90
3086;DHT22;52812;48.960;9.108;2023-02-28T08:06:04;-0.30;99.90
3086;DHT22;52812;48.960;9.108;2023-02-28T08:08:31;-0.30;99.90
3086;DHT22;52812;48.960;9.108;2023-02-28T08:11:03;-0.30;99.90
3086;DHT22;52812;48.960;9.108;2023-02-28T08:13:29;-0.10;99.90
3086;DHT22;52812;48.960;9.108;2023-02-28T08:15:56;-0.20;99.90
3086;DHT22;52812;48.960;9.108;2023-02-28T08:18:22;-0.20;99.90
3086;DHT22;52812;48.960;9.108;2023-02-28T08:20:48;-0.20;99.90
3086;DHT22;52812;48.960;9.108;2023-02-28T08:23:13;-0.10;99.90
3086;DHT22;52812;48.960;9.108;2023-02-28T08:25:39;0.00;99.90
3086;DHT22;52812;48.960;9.108;2023-02-28T08:28:05;0.10;99.90
3086;DHT22;52812;48.960;9.108;2023-02-28T08:30:30;0.10;99.90
3086;DHT22;52812;48.960;9.108;2023-02-28T08:32:56;0.10;99.90
3086;DHT22;52812;48.960;9.108;2023-02-28T08:35:22;0.20;99.90
3086;DHT22;52812;48.960;9.108;2023-02-28T08:37:48;0.20;99.90
3086;DHT22;52812;48.960;9.108;2023-02-28T08:40:15;0.20;99.90
3086;DHT22;52812;48.960;9.108;2023-02-28T08:42:47;0.20;99.90
3086;DHT22;52812;48.960;9.108;2023-02-28T08:45:14;0.40;99.90
3086;DHT22;52812;48.960;9.108;2023-02-28T08:47:40;0.50;99.90
3086;DHT22;52812;48.960;9.108;2023-02-28T08:50:07;0.50;99.90
3086;DHT22;52812;48.960;9.108;2023-02-28T08:52:33;0.60;99.90
3086;DHT22;52812;48.960;9.108;2023-02-28T08:54:59;0.70;99.90
3086;DHT22;52812;48.960;9.108;2023-02-28T08:57:25;1.00;99.90
3086;DHT22;52812;48.960;9.108;2023-02-28T08:59:53;1.00;99.90
3086;DHT22;52812;48.960;9.108;2023-02-28T09:02:19;1.20;99.90
3086;DHT22;52812;48.960;9.108;2023-02-28T09:04:45;1.40;99.90
3086;DHT22;52812;48.960;9.108;2023-02-28T09:07:13;1.50;99.90
3086;DHT22;52812;48.960;9.108;2023-02-28T09:09:39;1.60;99.90
3086;DHT22;52812;48.960;9.108;2023-02-28T09:12:20;1.50;99.90
3086;DHT22;52812;48.960;9.108;2023-02-28T09:15:18;1.60;99.90
3086;DHT22;52812;48.960;9.108;2023-02-28T09:17:57;1.50;99.90
3086;DHT22;52812;48.960;9.108;2023-02-28T09:20:26;1.60;99.90
3086;DHT22;52812;48.960;9.108;2023-02-28T09:22:51;1.50;99.90
3086;DHT22;52812;48.960;9.108;2023-02-28T09:25:17;1.20;99.90
3086;DHT22;52812;48.960;9.108;2023-02-28T09:27:42;1.10;99.90
3086;DHT22;52812;48.960;9.108;2023-02-28T09:30:09;1.10;99.90
3086;DHT22;52812;48.960;9.108;2023-02-28T09:32:34;1.30;99.90
3086;DHT22;52812;48.960;9.108;2023-02-28T09:35:00;1.40;99.90
3086;DHT22;52812;48.960;9.108;2023-02-28T09:37:25;1.60;99.90
3086;DHT22;52812;48.960;9.108;2023-02-28T09:39:56;1.70;99.90
3086;DHT22;52812;48.960;9.108;2023-02-28T09:42:30;1.70;99.90
3086;DHT22;52812;48.960;9.108;2023-02-28T09:44:56;1.60;99.90
3086;DHT22;52812;48.960;9.108;2023-02-28T09:47:41;1.70;99.90
3086;DHT22;52812;48.960;9.108;2023-02-28T09:52:52;1.90;99.90
3086;DHT22;52812;48.960;9.108;2023-02-28T09:55:27;1.80;99.90
3086;DHT22;52812;48.960;9.108;2023-02-28T09:57:54;1.70;99.90
3086;DHT22;52812;48.960;9.108;2023-02-28T10:00:36;1.60;99.90
3086;DHT22;52812;48.960;9.108;2023-02-28T10:03:27;1.70;99.90
3086;DHT22;52812;48.960;9.108;2023-02-28T10:05:56;1.70;99.90
3086;DHT22;52812;48.960;9.108;2023-02-28T10:09:04;1.90;99.90
3086;DHT22;52812;48.960;9.108;2023-02-28T10:11:33;1.90;99.90
3086;DHT22;52812;48.960;9.108;2023-02-28T10:16:42;2.00;99.90
3086;DHT22;52812;48.960;9.108;2023-02-28T10:19:14;2.20;99.90
3086;DHT22;52812;48.960;9.108;2023-02-28T10:21:58;2.40;99.90
3086;DHT22;52812;48.960;9.108;2023-02-28T10:24:37;2.40;99.90
3086;DHT22;52812;48.960;9.108;2023-02-28T10:27:18;2.40;99.90
3086;DHT22;52812;48.960;9.108;2023-02-28T10:29:49;2.50;99.90
3086;DHT22;52812;48.960;9.108;2023-02-28T10:32:24;2.90;99.90
3086;DHT22;52812;48.960;9.108;2023-02-28T10:34:59;2.90;99.90
3086;DHT22;52812;48.960;9.108;2023-02-28T10:37:26;2.80;99.90
3086;DHT22;52812;48.960;9.108;2023-02-28T10:39:52;2.70;99.90
3086;DHT22;52812;48.960;9.108;2023-02-28T10:42:26;2.70;99.90
3086;DHT22;52812;48.960;9.108;2023-02-28T10:45:06;2.70;99.90
3086;DHT22;52812;48.960;9.108;2023-02-28T10:47:33;2.80;99.90
3086;DHT22;52812;48.960;9.108;2023-02-28T10:49:59;2.90;99.90
3086;DHT22;52812;48.960;9.108;2023-02-28T10:52:39;3.00;99.90
3086;DHT22;52812;48.960;9.108;2023-02-28T10:55:20;3.30;99.90
3086;DHT22;52812;48.960;9.108;2023-02-28T10:57:47;3.40;99.90
3086;DHT22;52812;48.960;9.108;2023-02-28T11:00:19;3.40;99.90
3086;DHT22;52812;48.960;9.108;2023-02-28T11:02:46;3.90;99.90
3086;DHT22;52812;48.960;9.108;2023-02-28T11:05:30;3.90;99.90
3086;DHT22;52812;48.960;9.108;2023-02-28T11:08:06;4.00;99.90
3086;DHT22;52812;48.960;9.108;2023-02-28T11:10:36;3.90;99.90
3086;DHT22;52812;48.960;9.108;2023-02-28T11:13:02;3.90;99.90
3086;DHT22;52812;48.960;9.108;2023-02-28T11:15:38;3.80;99.90
3086;DHT22;52812;48.960;9.108;2023-02-28T11:18:27;3.60;99.90
3086;DHT22;52812;48.960;9.108;2023-02-28T11:20:55;3.30;99.90
3086;DHT22;52812;48.960;9.108;2023-02-28T11:23:25;3.40;99.90
3086;DHT22;52812;48.960;9.108;2023-02-28T11:25:54;3.50;99.90
3086;DHT22;52812;48.960;9.108;2023-02-28T11:28:34;3.70;99.90
3086;DHT22;52812;48.960;9.108;2023-02-28T11:33:50;3.70;99.90
3086;DHT22;52812;48.960;9.108;2023-02-28T11:36:28;4.00;99.90
3086;DHT22;52812;48.960;9.108;2023-02-28T11:38:56;4.40;99.90
3086;DHT22;52812;48.960;9.108;2023-02-28T11:46:51;4.10;99.90
3086;DHT22;52812;48.960;9.108;2023-02-28T11:54:59;4.20;99.90
3086;DHT22;52812;48.960;9.108;2023-02-28T11:57:51;4.30;99.90
3086;DHT22;52812;48.960;9.108;2023-02-28T12:00:35;4.30;99.90
3086;DHT22;52812;48.960;9.108;2023-02-28T12:03:18;4.50;99.90
3086;DHT22;52812;48.960;9.108;2023-02-28T12:05:53;4.70;99.90
3086;DHT22;52812;48.960;9.108;2023-02-28T12:14:37;4.70;99.90
3086;DHT22;52812;48.960;9.108;2023-02-28T12:28:04;4.60;99.90
3086;DHT22;52812;48.960;9.108;2023-02-28T12:30:35;4.40;99.90
3086;DHT22;52812;48.960;9.108;2023-02-28T12:33:12;4.50;99.90
3086;DHT22;52812;48.960;9.108;2023-02-28T12:35:59;4.80;99.90
3086;DHT22;52812;48.960;9.108;2023-02-28T12:38:29;4.80;99.90
3086;DHT22;52812;48.960;9.108;2023-02-28T12:41:05;4.70;99.90
3086;DHT22;52812;48.960;9.108;2023-02-28T12:43:42;4.50;99.90
3086;DHT22;52812;48.960;9.108;2023-02-28T12:46:13;4.60;99.90
3086;DHT22;52812;48.960;9.108;2023-02-28T12:48:43;4.90;99.90
3086;DHT22;52812;48.960;9.108;2023-02-28T12:51:10;5.20;99.90
3086;DHT22;52812;48.960;9.108;2023-02-28T12:59:00;4.90;99.90
3086;DHT22;52812;48.960;9.108;2023-02-28T13:02:01;4.80;99.90
3086;DHT22;52812;48.960;9.108;2023-02-28T13:07:52;4.90;99.90
3086;DHT22;52812;48.960;9.108;2023-02-28T13:10:23;4.70;99.90
3086;DHT22;52812;48.960;9.108;2023-02-28T13:12:53;4.90;99.90
3086;DHT22;52812;48.960;9.108;2023-02-28T13:15:25;5.10;99.90
3086;DHT22;52812;48.960;9.108;2023-02-28T13:17:55;5.00;99.90
3086;DHT22;52812;48.960;9.108;2023-02-28T13:20:25;5.00;99.90
3086;DHT22;52812;48.960;9.108;2023-02-28T13:22:53;5.00;99.90
3086;DHT22;52812;48.960;9.108;2023-02-28T13:27:51;4.90;99.90
3086;DHT22;52812;48.960;9.108;2023-02-28T13:35:45;4.60;99.90
3086;DHT22;52812;48.960;9.108;2023-02-28T13:38:32;4.80;99.90
3086;DHT22;52812;48.960;9.108;2023-02-28T13:46:32;4.70;99.90
3086;DHT22;52812;48.960;9.108;2023-02-28T14:06:50;4.80;99.90
3086;DHT22;52812;48.960;9.108;2023-02-28T14:11:43;4.60;99.90
3086;DHT22;52812;48.960;9.108;2023-02-28T14:17:02;4.80;99.90
3086;DHT22;52812;48.960;9.108;2023-02-28T14:19:31;4.70;99.90
3086;DHT22;52812;48.960;9.108;2023-02-28T14:22:16;4.70;99.90
3086;DHT22;52812;48.960;9.108;2023-02-28T14:25:06;4.70;99.90
3086;DHT22;52812;48.960;9.108;2023-02-28T14:27:45;4.70;99.90
3086;DHT22;52812;48.960;9.108;2023-02-28T14:36:06;4.70;99.90
3086;DHT22;52812;48.960;9.108;2023-02-28T14:38:38;4.70;99.90
3086;DHT22;52812;48.960;9.108;2023-02-28T14:41:14;4.70;99.90
3086;DHT22;52812;48.960;9.108;2023-02-28T14:43:52;4.70;99.90
3086;DHT22;52812;48.960;9.108;2023-02-28T14:46:18;4.70;99.90
3086;DHT22;52812;48.960;9.108;2023-02-28T14:48:49;4.60;99.90
3086;DHT22;52812;48.960;9.108;2023-02-28T14:51:21;4.70;99.90
3086;DHT22;52812;48.960;9.108;2023-02-28T14:53:50;4.60;99.90
3086;DHT22;52812;48.960;9.108;2023-02-28T14:56:22;4.60;99.90
3086;DHT22;52812;48.960;9.108;2023-02-28T14:58:54;4.70;99.90
3086;DHT22;52812;48.960;9.108;2023-02-28T15:01:22;4.70;99.90
3086;DHT22;52812;48.960;9.108;2023-02-28T15:03:57;4.70;99.90
3086;DHT22;52812;48.960;9.108;2023-02-28T15:06:23;4.70;99.90
3086;DHT22;52812;48.960;9.108;2023-02-28T15:09:07;4.70;99.90
3086;DHT22;52812;48.960;9.108;2023-02-28T15:11:33;4.60;99.90
3086;DHT22;52812;48.960;9.108;2023-02-28T15:14:00;4.60;99.90
3086;DHT22;52812;48.960;9.108;2023-02-28T15:16:31;4.70;99.90
3086;DHT22;52812;48.960;9.108;2023-02-28T15:19:02;4.50;99.90
3086;DHT22;52812;48.960;9.108;2023-02-28T15:21:30;4.60;99.90
3086;DHT22;52812;48.960;9.108;2023-02-28T15:24:13;4.60;99.90
3086;DHT22;52812;48.960;9.108;2023-02-28T15:26:43;4.60;99.90
3086;DHT22;52812;48.960;9.108;2023-02-28T15:29:17;4.70;99.90
3086;DHT22;52812;48.960;9.108;2023-02-28T15:31:48;4.60;99.90
3086;DHT22;52812;48.960;9.108;2023-02-28T15:34:38;4.60;99.90
3086;DHT22;52812;48.960;9.108;2023-02-28T15:39:52;4.50;99.90
3086;DHT22;52812;48.960;9.108;2023-02-28T15:42:20;4.50;99.90
3086;DHT22;52812;48.960;9.108;2023-02-28T15:44:46;4.50;99.90
3086;DHT22;52812;48.960;9.108;2023-02-28T15:47:19;4.50;99.90
3086;DHT22;52812;48.960;9.108;2023-02-28T15:49:52;4.50;99.90
3086;DHT22;52812;48.960;9.108;2023-02-28T15:52:27;4.50;99.90
3086;DHT22;52812;48.960;9.108;2023-02-28T15:54:54;4.40;99.90
3086;DHT22;52812;48.960;9.108;2023-02-28T15:57:25;4.40;99.90
3086;DHT22;52812;48.960;9.108;2023-02-28T16:00:00;4.40;99.90
3086;DHT22;52812;48.960;9.108;2023-02-28T16:02:35;4.40;99.90
3086;DHT22;52812;48.960;9.108;2023-02-28T16:07:28;4.30;99.90
3086;DHT22;52812;48.960;9.108;2023-02-28T16:09:54;4.30;99.90
3086;DHT22;52812;48.960;9.108;2023-02-28T16:12:22;4.30;99.90
3086;DHT22;52812;48.960;9.108;2023-02-28T16:14:52;4.20;99.90
3086;DHT22;52812;48.960;9.108;2023-02-28T16:17:29;4.20;99.90
3086;DHT22;52812;48.960;9.108;2023-02-28T16:19:56;4.10;99.90
3086;DHT22;52812;48.960;9.108;2023-02-28T16:22:23;4.00;99.90
3086;DHT22;52812;48.960;9.108;2023-02-28T16:24:49;4.00;99.90
3086;DHT22;52812;48.960;9.108;2023-02-28T16:27:21;3.90;99.90
3086;DHT22;52812;48.960;9.108;2023-02-28T16:29:47;3.90;99.90
3086;DHT22;52812;48.960;9.108;2023-02-28T16:32:15;3.90;99.90
3086;DHT22;52812;48.960;9.108;2023-02-28T16:34:42;3.90;99.90
3086;DHT22;52812;48.960;9.108;2023-02-28T16:37:12;3.80;99.90
3086;DHT22;52812;48.960;9.108;2023-02-28T16:39:38;3.80;99.90
3086;DHT22;52812;48.960;9.108;2023-02-28T16:42:04;3.70;99.90
3086;DHT22;52812;48.960;9.108;2023-02-28T16:44:35;3.70;99.90
3086;DHT22;52812;48.960;9.108;2023-02-28T16:47:03;3.70;99.90
3086;DHT22;52812;48.960;9.108;2023-02-28T16:49:29;3.70;99.90
3086;DHT22;52812;48.960;9.108;2023-02-28T16:51:54;3.60;99.90
3086;DHT22;52812;48.960;9.108;2023-02-28T16:54:20;3.60;99.90
3086;DHT22;52812;48.960;9.108;2023-02-28T16:56:47;3.60;99.90
3086;DHT22;52812;48.960;9.108;2023-02-28T16:59:17;3.50;99.90
3086;DHT22;52812;48.960;9.108;2023-02-28T17:01:43;3.40;99.90
3086;DHT22;52812;48.960;9.108;2023-02-28T17:04:10;3.40;99.90
3086;DHT22;52812;48.960;9.108;2023-02-28T17:06:36;3.40;99.90
3086;DHT22;52812;48.960;9.108;2023-02-28T17:09:02;3.30;99.90
3086;DHT22;52812;48.960;9.108;2023-02-28T17:11:28;3.30;99.90
3086;DHT22;52812;48.960;9.108;2023-02-28T17:13:53;3.20;99.90
3086;DHT22;52812;48.960;9.108;2023-02-28T17:16:31;3.20;99.90
3086;DHT22;52812;48.960;9.108;2023-02-28T17:19:00;3.20;99.90
3086;DHT22;52812;48.960;9.108;2023-02-28T17:21:26;3.20;99.90
3086;DHT22;52812;48.960;9.108;2023-02-28T17:23:52;3.10;99.90
3086;DHT22;52812;48.960;9.108;2023-02-28T17:26:20;3.10;99.90
3086;DHT22;52812;48.960;9.108;2023-02-28T17:28:47;3.10;99.90
3086;DHT22;52812;48.960;9.108;2023-02-28T17:31:12;3.00;99.90
3086;DHT22;52812;48.960;9.108;2023-02-28T17:33:38;3.00;99.90
3086;DHT22;52812;48.960;9.108;2023-02-28T17:36:04;3.00;99.90
3086;DHT22;52812;48.960;9.108;2023-02-28T17:38:30;3.00;99.90
3086;DHT22;52812;48.960;9.108;2023-02-28T17:40:56;3.00;99.90
3086;DHT22;52812;48.960;9.108;2023-02-28T17:43:24;2.90;99.90
3086;DHT22;52812;48.960;9.108;2023-02-28T17:45:50;2.90;99.90
3086;DHT22;52812;48.960;9.108;2023-02-28T17:48:15;2.90;99.90
3086;DHT22;52812;48.960;9.108;2023-02-28T17:50:42;2.80;99.90
3086;DHT22;52812;48.960;9.108;2023-02-28T17:53:07;2.80;99.90
3086;DHT22;52812;48.960;9.108;2023-02-28T17:55:33;2.80;99.90
3086;DHT22;52812;48.960;9.108;2023-02-28T17:57:59;2.70;99.90
3086;DHT22;52812;48.960;9.108;2023-02-28T18:00:25;2.70;99.90
3086;DHT22;52812;48.960;9.108;2023-02-28T18:02:51;2.60;99.90
3086;DHT22;52812;48.960;9.108;2023-02-28T18:05:17;2.60;99.90
3086;DHT22;52812;48.960;9.108;2023-02-28T18:07:42;2.50;99.90
3086;DHT22;52812;48.960;9.108;2023-02-28T18:10:15;2.50;99.90
3086;DHT22;52812;48.960;9.108;2023-02-28T18:12:41;2.40;99.90
3086;DHT22;52812;48.960;9.108;2023-02-28T18:15:07;2.30;99.90